Houn Maru — JG5489 — position and weather

sailwx.info

Track history (hours):
 
Tides and Currents Weather Stations Pressure Air Temp Water Temp Dewpoint Dewpoint Depression Visibility Wind Speed Wind Dir Waves Ship Positions

Houn Maru

Last reported at 2016-Jul-27 10:29 UTC. Time now 2016-Jul-27 13:31 UTC.
Position N 34°35' E 134°53'.

Length 91 m; draft 4.5 m.

Type: Tanker. MMSI: 431101172.

Date/timePositionNaut miles runAvg speedWind from/ knotsBaromVisibWave heightAir tempDewpointWater temp
2016-Jul-27 10:29N 34°35' E 134°53'9 9.9
2016-Jul-27 09:33N 34°35' E 135°04'1212.2
2016-Jul-27 08:33N 34°25' E 135°12'2 1.8
2016-Jul-27 07:16N 34°25' E 135°14'0 0.0
2016-Jul-27 05:28N 34°25' E 135°14'0 0.1
2016-Jul-27 04:30N 34°25' E 135°14'2 2.4
2016-Jul-27 03:33N 34°23' E 135°13'0 0.1
2016-Jul-27 02:32N 34°23' E 135°13'0 0.0
2016-Jul-27 00:11N 34°23' E 135°13'0 0.0
2016-Jul-26 22:14N 34°23' E 135°13'0 0.0
2016-Jul-26 21:32N 34°23' E 135°13'0 0.0
2016-Jul-26 19:32N 34°23' E 135°13'0 0.1
2016-Jul-26 18:32N 34°23' E 135°13'0 0.0
2016-Jul-26 17:32N 34°23' E 135°13'0 0.0
2016-Jul-26 16:32N 34°23' E 135°13'0 0.0
2016-Jul-26 15:29N 34°23' E 135°13'0 0.0
2016-Jul-26 14:32N 34°23' E 135°13'0 0.0
2016-Jul-26 13:26N 34°23' E 135°13'0 0.1
2016-Jul-26 12:33N 34°23' E 135°13'1010.1
2016-Jul-26 11:33N 34°32' E 135°06'8 0.3
2016-Jul-25 08:33N 34°37' E 134°58'9 9.5
2016-Jul-25 07:33N 34°32' E 135°07'9 8.9
2016-Jul-25 06:33N 34°25' E 135°14'0 0.0
2016-Jul-25 01:29N 34°25' E 135°14'2 0.9
2016-Jul-24 23:13N 34°23' E 135°12'0 0.0
2016-Jul-24 22:07N 34°23' E 135°12'0 0.0
2016-Jul-24 19:19N 34°23' E 135°12'6 7.5
2016-Jul-24 18:33N 34°28' E 135°08'1211.7
2016-Jul-24 17:33N 34°37' E 134°59'6 0.2
2016-Jul-23 00:10N 34°35' E 134°52'813.4
2016-Jul-22 23:33N 34°37' E 135°01'5 4.4
2016-Jul-22 22:29N 34°37' E 135°07'0 0.0
2016-Jul-22 21:29N 34°37' E 135°07'0 0.0
2016-Jul-22 20:29N 34°37' E 135°07'0 0.1
2016-Jul-22 19:11N 34°37' E 135°07'0 0.1
2016-Jul-22 18:23N 34°37' E 135°07'0 0.1
2016-Jul-22 17:29N 34°37' E 135°07'0 0.0
2016-Jul-22 16:11N 34°37' E 135°07'0 0.0
2016-Jul-22 15:29N 34°37' E 135°07'0 0.1
2016-Jul-22 14:29N 34°37' E 135°07'0 0.0
2016-Jul-22 13:29N 34°37' E 135°07'0 0.0
2016-Jul-22 12:29N 34°37' E 135°07'0 0.0
2016-Jul-22 11:29N 34°37' E 135°07'0 0.1
2016-Jul-22 10:29N 34°37' E 135°07'0 0.0
2016-Jul-22 09:29N 34°37' E 135°07'0 0.1
2016-Jul-22 08:29N 34°37' E 135°07'0 0.1
2016-Jul-22 07:29N 34°37' E 135°07'0 0.1
2016-Jul-22 05:33N 34°37' E 135°07'1110.5
2016-Jul-22 04:33N 34°27' E 135°10'4 3.0
2016-Jul-22 03:21N 34°25' E 135°14'0 0.0
2016-Jul-22 02:33N 34°25' E 135°14'0 0.0
2016-Jul-22 01:27N 34°25' E 135°14'0 0.0
2016-Jul-22 00:33N 34°25' E 135°14'2 2.3
2016-Jul-21 23:33N 34°23' E 135°13'0 0.0
2016-Jul-21 21:21N 34°23' E 135°13'0 0.0
2016-Jul-21 19:33N 34°23' E 135°13'0 0.0
2016-Jul-21 18:27N 34°23' E 135°13'0 0.0
2016-Jul-21 16:21N 34°23' E 135°13'0 0.0
2016-Jul-21 15:33N 34°23' E 135°13'7 7.4
2016-Jul-21 14:33N 34°30' E 135°08'10 9.6
2016-Jul-21 13:33N 34°37' E 135°00'1 0.0
2016-Jul-19 23:34N 34°37' E 135°01'5 3.2
2016-Jul-19 22:06N 34°37' E 135°07'0 0.0
2016-Jul-19 21:18N 34°37' E 135°07'0 0.0
2016-Jul-19 20:24N 34°37' E 135°07'0 0.0
2016-Jul-19 19:30N 34°37' E 135°07'0 0.0
2016-Jul-19 18:30N 34°37' E 135°07'0 0.0
2016-Jul-19 17:30N 34°37' E 135°07'0 0.1
2016-Jul-19 16:30N 34°37' E 135°07'0 0.0
2016-Jul-19 15:30N 34°37' E 135°07'0 0.0
2016-Jul-19 14:30N 34°37' E 135°07'0 0.0
2016-Jul-19 13:30N 34°37' E 135°07'0 0.0
2016-Jul-19 12:18N 34°37' E 135°07'0 0.0
2016-Jul-19 11:30N 34°37' E 135°07'0 0.0
2016-Jul-19 10:30N 34°37' E 135°07'0 0.0
2016-Jul-19 09:30N 34°37' E 135°07'0 0.1
2016-Jul-19 08:30N 34°37' E 135°07'0 0.0
2016-Jul-19 07:30N 34°37' E 135°07'13 4.3
2016-Jul-19 04:24N 34°25' E 135°14'0 0.1
2016-Jul-19 01:33N 34°25' E 135°14'2 0.4
2016-Jul-18 20:23N 34°23' E 135°12'0 0.0
2016-Jul-18 18:29N 34°23' E 135°12'0 0.1
2016-Jul-18 17:33N 34°23' E 135°13'10 9.7
2016-Jul-18 16:33N 34°31' E 135°06'  
Track history (hours):
 
Tides and Currents Weather Stations Pressure Air Temp Water Temp Dewpoint Dewpoint Depression Visibility Wind Speed Wind Dir Waves Ship Positions

Houn Maru

Last reported at 2016-Jul-27 10:29 UTC. Time now 2016-Jul-27 13:31 UTC.
Position N 34°35' E 134°53'.

Length 91 m; draft 4.5 m.

Type: Tanker. MMSI: 431101172.

Date/timePositionNaut miles runAvg speedWind from/ knotsBaromVisibWave heightAir tempDewpointWater temp
2016-Jul-27 10:29N 34°35' E 134°53'9 9.9
2016-Jul-27 09:33N 34°35' E 135°04'1212.2
2016-Jul-27 08:33N 34°25' E 135°12'2 1.8
2016-Jul-27 07:16N 34°25' E 135°14'0 0.0
2016-Jul-27 05:28N 34°25' E 135°14'0 0.1
2016-Jul-27 04:30N 34°25' E 135°14'2 2.4
2016-Jul-27 03:33N 34°23' E 135°13'0 0.1
2016-Jul-27 02:32N 34°23' E 135°13'0 0.0
2016-Jul-27 00:11N 34°23' E 135°13'0 0.0
2016-Jul-26 22:14N 34°23' E 135°13'0 0.0
2016-Jul-26 21:32N 34°23' E 135°13'0 0.0
2016-Jul-26 19:32N 34°23' E 135°13'0 0.1
2016-Jul-26 18:32N 34°23' E 135°13'0 0.0
2016-Jul-26 17:32N 34°23' E 135°13'0 0.0
2016-Jul-26 16:32N 34°23' E 135°13'0 0.0
2016-Jul-26 15:29N 34°23' E 135°13'0 0.0
2016-Jul-26 14:32N 34°23' E 135°13'0 0.0
2016-Jul-26 13:26N 34°23' E 135°13'0 0.1
2016-Jul-26 12:33N 34°23' E 135°13'1010.1
2016-Jul-26 11:33N 34°32' E 135°06'8 0.3
2016-Jul-25 08:33N 34°37' E 134°58'9 9.5
2016-Jul-25 07:33N 34°32' E 135°07'9 8.9
2016-Jul-25 06:33N 34°25' E 135°14'0 0.0
2016-Jul-25 01:29N 34°25' E 135°14'2 0.9
2016-Jul-24 23:13N 34°23' E 135°12'0 0.0
2016-Jul-24 22:07N 34°23' E 135°12'0 0.0
2016-Jul-24 19:19N 34°23' E 135°12'6 7.5
2016-Jul-24 18:33N 34°28' E 135°08'1211.7
2016-Jul-24 17:33N 34°37' E 134°59'6 0.2
2016-Jul-23 00:10N 34°35' E 134°52'813.4
2016-Jul-22 23:33N 34°37' E 135°01'5 4.4
2016-Jul-22 22:29N 34°37' E 135°07'0 0.0
2016-Jul-22 21:29N 34°37' E 135°07'0 0.0
2016-Jul-22 20:29N 34°37' E 135°07'0 0.1
2016-Jul-22 19:11N 34°37' E 135°07'0 0.1
2016-Jul-22 18:23N 34°37' E 135°07'0 0.1
2016-Jul-22 17:29N 34°37' E 135°07'0 0.0
2016-Jul-22 16:11N 34°37' E 135°07'0 0.0
2016-Jul-22 15:29N 34°37' E 135°07'0 0.1
2016-Jul-22 14:29N 34°37' E 135°07'0 0.0
2016-Jul-22 13:29N 34°37' E 135°07'0 0.0
2016-Jul-22 12:29N 34°37' E 135°07'0 0.0
2016-Jul-22 11:29N 34°37' E 135°07'0 0.1
2016-Jul-22 10:29N 34°37' E 135°07'0 0.0
2016-Jul-22 09:29N 34°37' E 135°07'0 0.1
2016-Jul-22 08:29N 34°37' E 135°07'0 0.1
2016-Jul-22 07:29N 34°37' E 135°07'0 0.1
2016-Jul-22 05:33N 34°37' E 135°07'1110.5
2016-Jul-22 04:33N 34°27' E 135°10'4 3.0
2016-Jul-22 03:21N 34°25' E 135°14'0 0.0
2016-Jul-22 02:33N 34°25' E 135°14'0 0.0
2016-Jul-22 01:27N 34°25' E 135°14'0 0.0
2016-Jul-22 00:33N 34°25' E 135°14'2 2.3
2016-Jul-21 23:33N 34°23' E 135°13'0 0.0
2016-Jul-21 21:21N 34°23' E 135°13'0 0.0
2016-Jul-21 19:33N 34°23' E 135°13'0 0.0
2016-Jul-21 18:27N 34°23' E 135°13'0 0.0
2016-Jul-21 16:21N 34°23' E 135°13'0 0.0
2016-Jul-21 15:33N 34°23' E 135°13'7 7.4
2016-Jul-21 14:33N 34°30' E 135°08'10 9.6
2016-Jul-21 13:33N 34°37' E 135°00'1 0.0
2016-Jul-19 23:34N 34°37' E 135°01'5 3.2
2016-Jul-19 22:06N 34°37' E 135°07'0 0.0
2016-Jul-19 21:18N 34°37' E 135°07'0 0.0
2016-Jul-19 20:24N 34°37' E 135°07'0 0.0
2016-Jul-19 19:30N 34°37' E 135°07'0 0.0
2016-Jul-19 18:30N 34°37' E 135°07'0 0.0
2016-Jul-19 17:30N 34°37' E 135°07'0 0.1
2016-Jul-19 16:30N 34°37' E 135°07'0 0.0
2016-Jul-19 15:30N 34°37' E 135°07'0 0.0
2016-Jul-19 14:30N 34°37' E 135°07'0 0.0
2016-Jul-19 13:30N 34°37' E 135°07'0 0.0
2016-Jul-19 12:18N 34°37' E 135°07'0 0.0
2016-Jul-19 11:30N 34°37' E 135°07'0 0.0
2016-Jul-19 10:30N 34°37' E 135°07'0 0.0
2016-Jul-19 09:30N 34°37' E 135°07'0 0.1
2016-Jul-19 08:30N 34°37' E 135°07'0 0.0
2016-Jul-19 07:30N 34°37' E 135°07'13 4.3
2016-Jul-19 04:24N 34°25' E 135°14'0 0.1
2016-Jul-19 01:33N 34°25' E 135°14'2 0.4
2016-Jul-18 20:23N 34°23' E 135°12'0 0.0
2016-Jul-18 18:29N 34°23' E 135°12'0 0.1
2016-Jul-18 17:33N 34°23' E 135°13'10 9.7
2016-Jul-18 16:33N 34°31' E 135°06'  

Dump ship's entire track history